Mears, Virginia
Current Conditions -  °F | °C
As of 8:52 AM on Monday 24 Nov 2014 (Local Time) from KWAL Reporting Station
Haze Haze  
Wind Chill: 61°   Ceiling: 200
Heat Index: 61°   Visibility: 1mi
Dew Point: 61°   Wind: 13mph
Humidity: 100%   Direction: 220°SW
Pressure: 29.78"   Gusts: NA
Location:  37.86°N, 75.62°W
Report Text: KWAL 241352Z AUTO 22011KT 1SM BR VV002 16/16 A2978 RMK AO2
Loading
Personal Weather Stations






























Interactive Weather Map New forecast layout! Learn more

10-Day Weather Forecast

Advertisements
Track Severe Weather on mobile